createdAt,value
2022-09-10T00:02:02.347Z,18.34
2022-09-10T00:04:28.986Z,18.37
2022-09-10T00:06:56.270Z,18.32
2022-09-10T00:09:23.647Z,18.37
2022-09-10T00:11:50.447Z,18.26
2022-09-10T00:14:21.313Z,18.28
2022-09-10T00:16:48.465Z,18.21
2022-09-10T00:19:16.086Z,18.34
2022-09-10T00:21:44.402Z,18.41
2022-09-10T00:24:11.262Z,18.41
2022-09-10T00:26:39.465Z,18.31
2022-09-10T00:29:09.253Z,18.15
2022-09-10T00:31:37.237Z,18.16
2022-09-10T00:34:05.866Z,18.11
2022-09-10T00:36:36.251Z,18.22
2022-09-10T00:39:07.135Z,18.15
2022-09-10T00:41:36.694Z,17.92
2022-09-10T00:44:06.698Z,18.02
2022-09-10T00:46:44.359Z,18.11
2022-09-10T00:49:32.321Z,17.91
2022-09-10T00:52:00.888Z,17.92
2022-09-10T00:54:29.565Z,17.78
2022-09-10T00:57:02.600Z,17.71
2022-09-10T00:59:31.018Z,17.70
2022-09-10T01:01:59.647Z,17.78
2022-09-10T01:04:28.713Z,17.79
2022-09-10T01:06:56.121Z,17.64
2022-09-10T01:09:24.180Z,17.67
2022-09-10T01:12:06.923Z,17.72
2022-09-10T01:14:51.541Z,17.68
2022-09-10T01:17:45.587Z,17.45
2022-09-10T01:21:12.985Z,17.16
2022-09-10T01:24:12.711Z,17.29
2022-09-10T01:26:59.036Z,17.18
2022-09-10T01:29:52.198Z,17.32
2022-09-10T01:32:57.908Z,17.31
2022-09-10T01:35:57.039Z,17.38
2022-09-10T01:38:27.722Z,17.32
2022-09-10T01:40:56.218Z,17.14
2022-09-10T01:43:25.109Z,16.97
2022-09-10T01:46:20.718Z,17.10
2022-09-10T01:48:59.845Z,17.14
2022-09-10T01:51:42.002Z,17.10
2022-09-10T01:55:04.006Z,17.11
2022-09-10T01:57:52.963Z,16.95
2022-09-10T02:00:21.979Z,17.15
2022-09-10T02:02:57.743Z,17.23
2022-09-10T02:05:30.255Z,17.29
2022-09-10T02:08:03.726Z,17.36
2022-09-10T02:10:30.824Z,17.42
2022-09-10T02:12:58.258Z,17.38
2022-09-10T02:15:56.747Z,17.43
2022-09-10T02:18:26.848Z,17.40
2022-09-10T02:20:56.514Z,17.41
2022-09-10T02:23:31.428Z,17.40
2022-09-10T02:25:58.402Z,17.45
2022-09-10T02:28:28.389Z,17.36
2022-09-10T02:30:55.067Z,17.19
2022-09-10T02:33:21.932Z,17.17
2022-09-10T02:35:49.740Z,17.20
2022-09-10T02:38:18.099Z,17.19
2022-09-10T02:40:49.410Z,17.04
2022-09-10T02:43:17.314Z,17.11
2022-09-10T02:45:44.653Z,17.04
2022-09-10T02:48:11.318Z,17.06
2022-09-10T02:50:38.542Z,17.10
2022-09-10T02:53:05.665Z,17.12
2022-09-10T02:55:32.703Z,17.14
2022-09-10T02:57:59.316Z,17.12
2022-09-10T03:00:26.075Z,17.17
2022-09-10T03:03:00.881Z,17.15
2022-09-10T03:05:29.870Z,17.07
2022-09-10T03:07:57.438Z,17.13
2022-09-10T03:10:24.447Z,17.14
2022-09-10T03:12:51.071Z,17.03
2022-09-10T03:15:20.533Z,17.09
2022-09-10T03:17:48.110Z,17.08
2022-09-10T03:20:14.972Z,17.02
2022-09-10T03:22:41.551Z,17.01
2022-09-10T03:25:11.704Z,16.79
2022-09-10T03:27:38.733Z,16.84
2022-09-10T03:30:08.289Z,16.83
2022-09-10T03:32:34.988Z,16.82
2022-09-10T03:35:01.508Z,16.83
2022-09-10T03:37:28.474Z,16.74
2022-09-10T03:39:55.040Z,16.68
2022-09-10T03:42:21.715Z,16.61
2022-09-10T03:44:48.286Z,16.60
2022-09-10T03:47:15.026Z,16.66
2022-09-10T03:49:41.548Z,16.64
2022-09-10T03:52:12.627Z,16.56
2022-09-10T03:54:41.237Z,16.31
2022-09-10T03:57:08.432Z,16.46
2022-09-10T03:59:35.627Z,16.50
2022-09-10T04:02:03.098Z,16.49
2022-09-10T04:04:31.447Z,16.52
2022-09-10T04:06:58.030Z,16.44
2022-09-10T04:09:24.533Z,16.47
2022-09-10T04:11:51.857Z,16.22
2022-09-10T04:14:21.649Z,16.21
2022-09-10T04:16:48.353Z,15.93
2022-09-10T04:19:14.984Z,15.87
2022-09-10T04:21:41.713Z,15.96
2022-09-10T04:24:12.188Z,16.12
2022-09-10T04:26:39.450Z,16.09
2022-09-10T04:29:06.907Z,16.19
2022-09-10T04:31:33.553Z,16.18
2022-09-10T04:34:08.504Z,16.26
2022-09-10T04:36:35.054Z,16.37
2022-09-10T04:39:02.221Z,16.34
2022-09-10T04:41:30.549Z,16.37
2022-09-10T04:43:58.535Z,16.45
2022-09-10T04:46:25.894Z,16.44
2022-09-10T04:48:54.356Z,16.39
2022-09-10T04:51:23.431Z,16.40
2022-09-10T04:53:53.256Z,16.39
2022-09-10T04:56:24.203Z,16.41
2022-09-10T04:58:51.732Z,16.33
2022-09-10T05:01:19.072Z,16.31
2022-09-10T05:03:49.245Z,16.24
2022-09-10T05:06:15.855Z,16.20
2022-09-10T05:08:45.954Z,16.28
2022-09-10T05:11:13.210Z,16.33
2022-09-10T05:13:40.411Z,16.27
2022-09-10T05:16:07.765Z,16.25
2022-09-10T05:18:34.908Z,16.24
2022-09-10T05:21:02.248Z,16.16
2022-09-10T05:23:28.893Z,16.21
2022-09-10T05:25:58.320Z,16.25
2022-09-10T05:28:26.735Z,16.29
2022-09-10T05:30:53.338Z,16.25
2022-09-10T05:33:23.019Z,16.24
2022-09-10T05:35:52.756Z,16.29
2022-09-10T05:38:20.945Z,16.31
2022-09-10T05:40:48.200Z,16.33
2022-09-10T05:43:14.925Z,16.31
2022-09-10T05:45:43.502Z,16.34
2022-09-10T05:48:10.173Z,16.24
2022-09-10T05:50:38.434Z,16.32
2022-09-10T05:53:05.306Z,16.44
2022-09-10T05:55:33.295Z,16.44
2022-09-10T05:58:00.589Z,16.59
2022-09-10T06:00:27.416Z,16.56
2022-09-10T06:03:01.250Z,16.58
2022-09-10T06:05:33.065Z,16.63
2022-09-10T06:08:05.391Z,16.72
2022-09-10T06:10:36.855Z,16.77
2022-09-10T06:13:03.400Z,16.77
2022-09-10T06:15:33.119Z,16.79
2022-09-10T06:18:01.815Z,16.85
2022-09-10T06:20:28.945Z,16.81
2022-09-10T06:22:55.678Z,16.89
2022-09-10T06:25:22.477Z,16.98
2022-09-10T06:27:49.038Z,16.98
2022-09-10T06:30:17.546Z,17.03
2022-09-10T06:32:47.190Z,16.99
2022-09-10T06:35:14.243Z,17.08
2022-09-10T06:37:41.043Z,17.13
2022-09-10T06:40:09.794Z,17.22
2022-09-10T06:42:37.064Z,17.28
2022-09-10T06:45:12.567Z,17.34
2022-09-10T06:48:37.724Z,17.34
2022-09-10T06:50:53.310Z,17.38
2022-09-10T06:53:23.625Z,17.33
2022-09-10T06:55:52.311Z,17.41
2022-09-10T06:58:21.431Z,17.43
2022-09-10T07:00:48.203Z,17.43
2022-09-10T07:03:19.407Z,17.44
2022-09-10T07:05:47.049Z,17.49
2022-09-10T07:08:16.024Z,17.55
2022-09-10T07:10:44.817Z,17.65
2022-09-10T07:13:15.191Z,17.63
2022-09-10T07:15:46.751Z,17.66
2022-09-10T07:18:15.688Z,17.71
2022-09-10T07:20:43.711Z,17.84
2022-09-10T07:23:12.846Z,17.87
2022-09-10T07:25:42.043Z,17.86
2022-09-10T07:28:18.129Z,17.92
2022-09-10T07:30:47.428Z,17.98
2022-09-10T07:33:15.138Z,18.00
2022-09-10T07:35:43.331Z,18.07
2022-09-10T07:38:16.901Z,18.09
2022-09-10T07:40:45.315Z,18.12
2022-09-10T07:43:12.731Z,18.15
2022-09-10T07:45:40.462Z,18.15
2022-09-10T07:48:08.349Z,18.24
2022-09-10T07:50:38.287Z,18.30
2022-09-10T07:53:05.533Z,18.30
2022-09-10T07:55:32.986Z,18.41
2022-09-10T07:58:00.407Z,18.43
2022-09-10T08:00:29.142Z,18.36
2022-09-10T08:02:59.419Z,18.45
2022-09-10T08:05:28.749Z,18.50
2022-09-10T08:07:55.683Z,18.47
2022-09-10T08:10:25.204Z,18.58
2022-09-10T08:12:52.233Z,18.60
2022-09-10T08:15:19.810Z,18.61
2022-09-10T08:17:46.950Z,18.63
2022-09-10T08:20:14.723Z,18.73
2022-09-10T08:22:43.911Z,18.74
2022-09-10T08:25:10.955Z,18.87
2022-09-10T08:27:38.606Z,18.99
2022-09-10T08:30:08.922Z,18.97
2022-09-10T08:32:37.035Z,19.03
2022-09-10T08:35:06.755Z,19.07
2022-09-10T08:37:34.197Z,19.16
2022-09-10T08:40:01.848Z,19.19
2022-09-10T08:42:56.711Z,19.28
2022-09-10T08:45:28.958Z,19.36
2022-09-10T08:48:23.240Z,19.42
2022-09-10T08:51:02.967Z,19.43
2022-09-10T08:53:38.077Z,19.53
2022-09-10T08:56:10.399Z,19.53
2022-09-10T08:58:44.691Z,19.57
2022-09-10T09:01:18.334Z,19.57
2022-09-10T09:03:47.100Z,19.69
2022-09-10T09:06:44.344Z,19.74
2022-09-10T09:09:15.663Z,19.82
2022-09-10T09:11:59.037Z,19.82
2022-09-10T09:14:59.175Z,19.81
2022-09-10T09:17:56.625Z,19.95
2022-09-10T09:20:54.461Z,20.03
2022-09-10T09:23:33.333Z,19.99
2022-09-10T09:26:11.317Z,20.00
2022-09-10T09:28:51.603Z,20.02
2022-09-10T09:31:30.029Z,20.13
2022-09-10T09:34:14.595Z,20.14
2022-09-10T09:36:47.579Z,20.25
2022-09-10T09:39:25.811Z,20.37
2022-09-10T09:42:19.698Z,20.36
2022-09-10T09:45:02.147Z,20.50
2022-09-10T09:47:30.084Z,20.58
2022-09-10T09:49:58.145Z,20.68
2022-09-10T09:52:27.383Z,20.63
2022-09-10T09:55:15.937Z,20.65
2022-09-10T09:57:43.126Z,20.77
2022-09-10T10:00:33.481Z,20.88
2022-09-10T10:03:15.034Z,20.87
2022-09-10T10:05:42.921Z,20.94
2022-09-10T10:08:34.105Z,21.03
2022-09-10T10:11:01.483Z,21.11
2022-09-10T10:13:43.197Z,21.10
2022-09-10T10:16:23.849Z,21.29
2022-09-10T10:18:50.959Z,21.40
2022-09-10T10:21:36.847Z,21.31
2022-09-10T10:24:04.127Z,21.45
2022-09-10T10:26:33.611Z,21.41
2022-09-10T10:29:16.351Z,21.44
2022-09-10T10:31:45.480Z,21.57
2022-09-10T10:34:18.051Z,21.59
2022-09-10T10:36:57.129Z,21.57
2022-09-10T10:39:45.376Z,21.55
2022-09-10T10:42:39.901Z,21.64
2022-09-10T10:45:31.034Z,21.63
2022-09-10T10:48:25.121Z,21.67
2022-09-10T10:51:17.248Z,21.78
2022-09-10T10:53:53.768Z,21.85
2022-09-10T10:56:26.585Z,21.93
2022-09-10T10:59:14.755Z,21.95
2022-09-10T11:01:48.539Z,22.11
2022-09-10T11:04:24.360Z,22.14
2022-09-10T11:07:16.728Z,22.11
2022-09-10T11:09:51.840Z,22.13
2022-09-10T11:12:31.559Z,22.14
2022-09-10T11:15:02.150Z,22.14
2022-09-10T11:17:39.582Z,22.25
2022-09-10T11:20:28.405Z,22.31
2022-09-10T11:23:16.779Z,22.29
2022-09-10T11:26:08.896Z,22.18
2022-09-10T11:28:52.182Z,22.37
2022-09-10T11:31:33.826Z,22.40
2022-09-10T11:34:38.345Z,22.45
2022-09-10T11:37:10.794Z,22.70
2022-09-10T11:39:48.652Z,22.81
2022-09-10T11:42:39.789Z,22.79
2022-09-10T11:45:25.992Z,22.81
2022-09-10T11:48:00.219Z,22.92
2022-09-10T11:50:34.935Z,23.02
2022-09-10T11:53:03.892Z,23.03
2022-09-10T11:56:05.963Z,23.09
2022-09-10T11:58:44.458Z,23.08
2022-09-10T12:01:38.665Z,23.11
2022-09-10T12:04:39.251Z,23.09
2022-09-10T12:07:37.037Z,23.10
2022-09-10T12:10:23.085Z,23.30
2022-09-10T12:12:51.080Z,23.19
2022-09-10T12:15:33.923Z,23.27
2022-09-10T12:18:06.919Z,23.38
2022-09-10T12:20:42.211Z,23.37
2022-09-10T12:23:16.014Z,23.38
2022-09-10T12:25:42.688Z,23.52
2022-09-10T12:28:41.823Z,23.58
2022-09-10T12:31:11.522Z,23.67
2022-09-10T12:33:43.989Z,23.78
2022-09-10T12:36:14.845Z,23.65
2022-09-10T12:39:06.954Z,23.54
2022-09-10T12:41:36.041Z,23.59
2022-09-10T12:44:24.775Z,23.63
2022-09-10T12:47:16.396Z,23.83
2022-09-10T12:49:54.985Z,23.87
2022-09-10T12:52:49.198Z,23.84
2022-09-10T12:55:29.108Z,23.86
2022-09-10T12:58:16.375Z,23.91
2022-09-10T13:00:54.022Z,24.12
2022-09-10T13:03:22.556Z,24.09
2022-09-10T13:05:53.188Z,24.17
2022-09-10T13:08:38.032Z,24.16
2022-09-10T13:11:15.690Z,24.19
2022-09-10T13:13:49.065Z,24.28
2022-09-10T13:16:26.470Z,24.27
2022-09-10T13:19:12.948Z,24.32
2022-09-10T13:21:45.730Z,24.36
2022-09-10T13:24:32.336Z,24.44
2022-09-10T13:27:22.640Z,24.51
2022-09-10T13:30:11.518Z,24.32
2022-09-10T13:32:55.324Z,24.21
2022-09-10T13:35:59.122Z,24.22
2022-09-10T13:38:53.978Z,24.40
2022-09-10T13:41:32.499Z,24.39
2022-09-10T13:44:07.843Z,24.41
2022-09-10T13:46:42.138Z,24.45
2022-09-10T13:49:17.064Z,24.56
2022-09-10T13:51:53.017Z,24.63
2022-09-10T13:54:23.599Z,24.58
2022-09-10T13:56:50.717Z,24.51
2022-09-10T13:59:30.698Z,24.47
2022-09-10T14:02:00.144Z,24.63
2022-09-10T14:04:44.742Z,24.73
2022-09-10T14:07:29.436Z,24.70
2022-09-10T14:10:03.147Z,24.71
2022-09-10T14:12:35.933Z,24.78
2022-09-10T14:15:07.394Z,24.79
2022-09-10T14:17:43.583Z,24.82
2022-09-10T14:20:34.417Z,24.88
2022-09-10T14:23:08.639Z,25.00
2022-09-10T14:25:39.601Z,25.05
2022-09-10T14:28:16.673Z,25.04
2022-09-10T14:30:46.049Z,24.94
2022-09-10T14:33:28.891Z,24.92
2022-09-10T14:36:02.237Z,24.81
2022-09-10T14:38:35.231Z,24.84
2022-09-10T14:41:08.829Z,24.71
2022-09-10T14:43:39.424Z,24.65
2022-09-10T14:46:10.656Z,24.73
2022-09-10T14:48:42.687Z,24.71
2022-09-10T14:51:24.096Z,24.68
2022-09-10T14:53:58.691Z,24.82
2022-09-10T14:56:47.028Z,24.79
2022-09-10T14:59:24.916Z,24.76
2022-09-10T15:01:54.971Z,24.70
2022-09-10T15:04:29.139Z,24.76
2022-09-10T15:06:58.712Z,24.79
2022-09-10T15:09:29.178Z,24.77
2022-09-10T15:12:04.051Z,24.71
2022-09-10T15:14:33.960Z,24.70
2022-09-10T15:17:02.530Z,24.72
2022-09-10T15:19:30.219Z,24.79
2022-09-10T15:21:58.817Z,24.76
2022-09-10T15:24:26.600Z,24.78
2022-09-10T15:26:57.056Z,24.71
2022-09-10T15:29:26.706Z,24.70
2022-09-10T15:31:55.245Z,24.72
2022-09-10T15:34:23.127Z,24.69
2022-09-10T15:36:51.437Z,24.71
2022-09-10T15:39:18.634Z,24.69
2022-09-10T15:41:46.937Z,24.66
2022-09-10T15:44:15.563Z,24.67
2022-09-10T15:46:45.922Z,24.70
2022-09-10T15:49:14.267Z,24.67
2022-09-10T15:51:42.334Z,24.59
2022-09-10T15:54:11.786Z,24.58
2022-09-10T15:56:43.262Z,24.55
2022-09-10T15:59:12.203Z,24.51
2022-09-10T16:01:41.728Z,24.46
2022-09-10T16:04:12.583Z,24.51
2022-09-10T16:06:41.245Z,24.47
2022-09-10T16:09:12.689Z,24.35
2022-09-10T16:11:43.665Z,24.36
2022-09-10T16:14:14.577Z,24.37
2022-09-10T16:16:45.322Z,24.36
2022-09-10T16:19:15.317Z,24.32
2022-09-10T16:21:46.765Z,24.33
2022-09-10T16:24:16.274Z,24.23
2022-09-10T16:26:46.797Z,24.21
2022-09-10T16:29:17.376Z,24.24
2022-09-10T16:31:48.985Z,24.21
2022-09-10T16:34:20.229Z,24.18
2022-09-10T16:36:56.675Z,24.00
2022-09-10T16:39:25.429Z,23.77
2022-09-10T16:41:53.670Z,23.60
2022-09-10T16:44:22.201Z,23.40
2022-09-10T16:46:50.775Z,23.34
2022-09-10T16:49:20.748Z,23.24
2022-09-10T16:51:50.431Z,23.15
2022-09-10T16:54:23.414Z,23.09
2022-09-10T16:56:51.836Z,22.78
2022-09-10T16:59:22.757Z,22.63
2022-09-10T17:01:52.586Z,22.48
2022-09-10T17:04:28.524Z,22.30
2022-09-10T17:07:00.778Z,22.09
2022-09-10T17:09:28.527Z,21.94
2022-09-10T17:11:56.808Z,21.80
2022-09-10T17:14:24.860Z,21.87
2022-09-10T17:16:53.015Z,21.91
2022-09-10T17:19:28.801Z,21.84
2022-09-10T17:21:57.339Z,21.80
2022-09-10T17:24:27.951Z,21.81
2022-09-10T17:26:57.754Z,21.75
2022-09-10T17:29:27.113Z,21.82
2022-09-10T17:31:59.046Z,21.88
2022-09-10T17:34:29.010Z,21.81
2022-09-10T17:36:58.023Z,21.78
2022-09-10T17:39:28.945Z,21.63
2022-09-10T17:41:56.821Z,21.67
2022-09-10T17:44:26.395Z,21.74
2022-09-10T17:46:55.729Z,21.74
2022-09-10T17:49:24.029Z,21.59
2022-09-10T17:51:52.620Z,21.63
2022-09-10T17:54:20.835Z,21.61
2022-09-10T17:56:48.848Z,21.57
2022-09-10T17:59:17.213Z,21.61
2022-09-10T18:01:45.908Z,21.49
2022-09-10T18:04:14.403Z,21.48
2022-09-10T18:06:42.586Z,21.47
2022-09-10T18:09:12.642Z,21.50
2022-09-10T18:11:41.865Z,21.53
2022-09-10T18:14:19.832Z,21.38
2022-09-10T18:16:48.261Z,21.40
2022-09-10T18:19:18.632Z,21.39
2022-09-10T18:21:47.435Z,21.39
2022-09-10T18:24:28.074Z,21.28
2022-09-10T18:26:55.955Z,21.35
2022-09-10T18:29:25.726Z,21.33
2022-09-10T18:31:58.732Z,21.32
2022-09-10T18:34:30.927Z,21.29
2022-09-10T18:37:02.619Z,21.19
2022-09-10T18:39:31.482Z,21.08
2022-09-10T18:42:00.598Z,21.11
2022-09-10T18:44:30.780Z,21.11
2022-09-10T18:46:57.375Z,20.96
2022-09-10T18:49:25.157Z,20.96
2022-09-10T18:51:53.138Z,20.90
2022-09-10T18:54:21.157Z,20.79
2022-09-10T18:56:49.027Z,20.94
2022-09-10T18:59:20.244Z,20.97
2022-09-10T19:01:48.058Z,20.96
2022-09-10T19:04:17.723Z,20.95
2022-09-10T19:06:49.140Z,20.90
2022-09-10T19:09:26.871Z,20.85
2022-09-10T19:11:55.468Z,20.87
2022-09-10T19:14:27.677Z,20.81
2022-09-10T19:16:56.406Z,20.83
2022-09-10T19:19:26.630Z,20.71
2022-09-10T19:22:02.834Z,20.68
2022-09-10T19:24:53.515Z,20.58
2022-09-10T19:27:17.082Z,20.46
2022-09-10T19:29:44.394Z,20.54
2022-09-10T19:32:11.414Z,20.58
2022-09-10T19:34:39.000Z,20.60
2022-09-10T19:37:07.056Z,20.55
2022-09-10T19:39:33.693Z,20.47
2022-09-10T19:42:00.578Z,20.42
2022-09-10T19:44:27.337Z,20.21
2022-09-10T19:46:53.912Z,20.11
2022-09-10T19:49:20.506Z,20.13
2022-09-10T19:51:47.393Z,19.92
2022-09-10T19:54:14.413Z,20.01
2022-09-10T19:56:42.549Z,20.01
2022-09-10T19:59:09.860Z,20.00
2022-09-10T20:01:40.041Z,19.92
2022-09-10T20:04:09.716Z,19.94
2022-09-10T20:06:37.604Z,19.89
2022-09-10T20:09:06.315Z,19.88
2022-09-10T20:11:35.113Z,19.79
2022-09-10T20:14:10.182Z,19.76
2022-09-10T20:16:39.244Z,19.86
2022-09-10T20:19:06.840Z,19.86
2022-09-10T20:21:34.303Z,19.86
2022-09-10T20:24:01.246Z,19.91
2022-09-10T20:26:30.663Z,19.92
2022-09-10T20:29:03.920Z,19.85
2022-09-10T20:31:32.524Z,19.73
2022-09-10T20:34:00.998Z,19.69
2022-09-10T20:36:28.527Z,19.75
2022-09-10T20:38:55.996Z,19.75
2022-09-10T20:41:24.164Z,19.74
2022-09-10T20:43:52.224Z,19.76
2022-09-10T20:46:22.289Z,19.78
2022-09-10T20:48:50.995Z,19.67
2022-09-10T20:51:19.224Z,19.54
2022-09-10T20:53:46.214Z,19.67
2022-09-10T20:56:19.707Z,19.75
2022-09-10T20:58:47.477Z,19.76
2022-09-10T21:01:20.013Z,19.72
2022-09-10T21:03:48.407Z,19.73
2022-09-10T21:06:18.296Z,19.78
2022-09-10T21:08:47.540Z,19.78
2022-09-10T21:11:16.442Z,19.64
2022-09-10T21:13:51.542Z,19.61
2022-09-10T21:16:21.073Z,19.59
2022-09-10T21:18:54.721Z,19.43
2022-09-10T21:21:25.645Z,19.21
2022-09-10T21:23:54.993Z,19.31
2022-09-10T21:26:25.181Z,19.32
2022-09-10T21:28:59.960Z,19.49
2022-09-10T21:31:28.334Z,19.53
2022-09-10T21:34:00.642Z,19.55
2022-09-10T21:36:29.385Z,19.43
2022-09-10T21:39:00.972Z,19.24
2022-09-10T21:41:39.998Z,19.06
2022-09-10T21:44:15.144Z,19.18
2022-09-10T21:46:43.321Z,19.25
2022-09-10T21:49:10.063Z,19.30
2022-09-10T21:51:36.930Z,19.21
2022-09-10T21:54:04.757Z,19.33
2022-09-10T21:56:31.776Z,19.42
2022-09-10T21:59:00.362Z,19.50
2022-09-10T22:01:30.063Z,19.58
2022-09-10T22:04:00.006Z,19.64
2022-09-10T22:06:28.736Z,19.71
2022-09-10T22:08:58.411Z,19.72
2022-09-10T22:11:37.593Z,19.75
2022-09-10T22:14:12.041Z,19.69
2022-09-10T22:16:39.021Z,19.76
2022-09-10T22:19:09.369Z,19.77
2022-09-10T22:21:38.524Z,19.81
2022-09-10T22:24:06.457Z,19.83
2022-09-10T22:26:34.484Z,19.82
2022-09-10T22:29:02.622Z,19.78
2022-09-10T22:31:34.026Z,19.71
2022-09-10T22:34:03.334Z,19.76
2022-09-10T22:36:32.932Z,19.70
2022-09-10T22:39:02.456Z,19.67
2022-09-10T22:41:31.583Z,19.69
2022-09-10T22:43:58.392Z,19.71
2022-09-10T22:46:25.094Z,19.62
2022-09-10T22:48:51.736Z,19.57
2022-09-10T22:51:24.483Z,19.41
2022-09-10T22:53:53.175Z,19.38
2022-09-10T22:56:22.142Z,19.37
2022-09-10T22:58:51.618Z,19.38
2022-09-10T23:01:21.040Z,19.34
2022-09-10T23:03:48.511Z,19.35
2022-09-10T23:06:18.100Z,19.25
2022-09-10T23:08:47.281Z,19.31
2022-09-10T23:11:22.575Z,19.25
2022-09-10T23:13:53.706Z,19.22
2022-09-10T23:16:29.195Z,19.08
2022-09-10T23:18:57.428Z,19.10
2022-09-10T23:21:25.868Z,19.08
2022-09-10T23:23:57.480Z,19.13
2022-09-10T23:26:24.749Z,19.16
2022-09-10T23:28:52.050Z,19.14
2022-09-10T23:31:20.612Z,19.02
2022-09-10T23:33:52.839Z,18.99
2022-09-10T23:36:19.389Z,19.00
2022-09-10T23:38:46.088Z,18.98
2022-09-10T23:41:13.105Z,19.01
2022-09-10T23:43:40.350Z,18.98
2022-09-10T23:46:07.697Z,18.90
2022-09-10T23:48:35.383Z,18.76
2022-09-10T23:51:02.822Z,18.73
2022-09-10T23:53:29.936Z,18.58
2022-09-10T23:55:57.313Z,18.64
2022-09-10T23:58:24.132Z,18.29
